DAL127 KATL-KLAS
Flight info
| Callsign | DAL127 |
|---|---|
| Flight time | 1h 23m |
| Altitude | 38000 |
| Route | NASSA2 YAALL J14 LIT MLC PNH GUP HAHAA RKSTR4 |
| Aircraft | A339/H-SADE1E2E3GHIJ3J5M1P2RWXY/LB2D1 |
Departure
| Time | 2026-05-07 20:03 |
|---|---|
| Airport | Hartsfield Jackson Atlanta International Airport (KATL) |
Arrival
| Time | 2026-05-07 21:26 |
|---|---|
| Airport | Harry Reid International Airport (KLAS) |
| Time | Latitude | Longitude | Altitude | Speed | Heading |
|---|---|---|---|---|---|
| 2026-05-07 19:38 | 33.64298 | -84.42514 | 1012 ft | 0 kts | 270° |
| 2026-05-07 19:53 | 33.64298 | -84.42508 | 1012 ft | 3 kts | 269° |
| 2026-05-07 19:53 | 33.64298 | -84.42476 | 1012 ft | 4 kts | 269° |
| 2026-05-07 19:53 | 33.64298 | -84.42444 | 1012 ft | 3 kts | 269° |
| 2026-05-07 19:53 | 33.64301 | -84.42423 | 1012 ft | 4 kts | 314° |
| 2026-05-07 19:54 | 33.64293 | -84.42413 | 1012 ft | 4 kts | 4° |
| 2026-05-07 19:54 | 33.64266 | -84.42416 | 1012 ft | 4 kts | 2° |
| 2026-05-07 19:54 | 33.64258 | -84.42417 | 1012 ft | 0 kts | 0° |
| 2026-05-07 19:58 | 33.64269 | -84.42411 | 1012 ft | 8 kts | 21° |
| 2026-05-07 19:59 | 33.64269 | -84.42347 | 1012 ft | 10 kts | 107° |
| 2026-05-07 19:59 | 33.64276 | -84.42263 | 1012 ft | 10 kts | 54° |
| 2026-05-07 19:59 | 33.64352 | -84.42238 | 1012 ft | 13 kts | 8° |
| 2026-05-07 19:59 | 33.64455 | -84.42225 | 1012 ft | 16 kts | 2° |
| 2026-05-07 20:00 | 33.64533 | -84.42144 | 1012 ft | 17 kts | 76° |
| 2026-05-07 20:00 | 33.64550 | -84.41986 | 1012 ft | 21 kts | 94° |
| 2026-05-07 20:00 | 33.64541 | -84.41802 | 1011 ft | 24 kts | 89° |
| 2026-05-07 20:00 | 33.64546 | -84.41599 | 1013 ft | 26 kts | 89° |
| 2026-05-07 20:01 | 33.64551 | -84.41373 | 1013 ft | 29 kts | 89° |
| 2026-05-07 20:01 | 33.64547 | -84.41127 | 1013 ft | 30 kts | 90° |
| 2026-05-07 20:01 | 33.64541 | -84.40890 | 1012 ft | 24 kts | 91° |
| 2026-05-07 20:01 | 33.64561 | -84.40705 | 1011 ft | 20 kts | 86° |
| 2026-05-07 20:02 | 33.64588 | -84.40590 | 1011 ft | 13 kts | 49° |
| 2026-05-07 20:02 | 33.64651 | -84.40579 | 1010 ft | 4 kts | 340° |
| 2026-05-07 20:02 | 33.64672 | -84.40604 | 1009 ft | 6 kts | 306° |
| 2026-05-07 20:02 | 33.64683 | -84.40688 | 1010 ft | 28 kts | 274° |
| 2026-05-07 20:03 | 33.64678 | -84.41181 | 1013 ft | 70 kts | 269° |
| 2026-05-07 20:03 | 33.64680 | -84.42039 | 1011 ft | 134 kts | 269° |
| 2026-05-07 20:03 | 33.64659 | -84.43322 | 1217 ft | 163 kts | 269° |
| 2026-05-07 20:03 | 33.64596 | -84.44732 | 1730 ft | 172 kts | 270° |
| 2026-05-07 20:04 | 33.64605 | -84.45669 | 2244 ft | 166 kts | 276° |
| 2026-05-07 20:04 | 33.64790 | -84.46988 | 3015 ft | 160 kts | 284° |
| 2026-05-07 20:04 | 33.65077 | -84.48345 | 3400 ft | 176 kts | 284° |
| 2026-05-07 20:04 | 33.65494 | -84.50365 | 3844 ft | 202 kts | 283° |
| 2026-05-07 20:05 | 33.65830 | -84.52088 | 4249 ft | 222 kts | 282° |
| 2026-05-07 20:05 | 33.66182 | -84.53978 | 4617 ft | 242 kts | 282° |
| 2026-05-07 20:05 | 33.66431 | -84.55327 | 4988 ft | 247 kts | 281° |
| 2026-05-07 20:05 | 33.66804 | -84.57335 | 5758 ft | 245 kts | 281° |
| 2026-05-07 20:06 | 33.67170 | -84.59323 | 6482 ft | 249 kts | 281° |
| 2026-05-07 20:06 | 33.67526 | -84.61377 | 7185 ft | 252 kts | 280° |
| 2026-05-07 20:06 | 33.67872 | -84.63433 | 7989 ft | 251 kts | 279° |
| 2026-05-07 20:06 | 33.68212 | -84.65477 | 8822 ft | 249 kts | 279° |
| 2026-05-07 20:07 | 33.68553 | -84.67517 | 9568 ft | 250 kts | 279° |
| 2026-05-07 20:07 | 33.68900 | -84.69583 | 10208 ft | 254 kts | 280° |
| 2026-05-07 20:07 | 33.69261 | -84.71721 | 10489 ft | 271 kts | 280° |
| 2026-05-07 20:07 | 33.69647 | -84.74016 | 10650 ft | 290 kts | 280° |
| 2026-05-07 20:08 | 33.69943 | -84.76452 | 11098 ft | 296 kts | 274° |
| 2026-05-07 20:08 | 33.69980 | -84.78904 | 11883 ft | 292 kts | 270° |
| 2026-05-07 20:08 | 33.69960 | -84.81326 | 12657 ft | 289 kts | 271° |
| 2026-05-07 20:08 | 33.69954 | -84.83738 | 13395 ft | 288 kts | 271° |
| 2026-05-07 20:09 | 33.69953 | -84.86132 | 14098 ft | 285 kts | 271° |
| 2026-05-07 20:09 | 33.69953 | -84.88517 | 14672 ft | 286 kts | 271° |
| 2026-05-07 20:09 | 33.69953 | -84.90909 | 15238 ft | 288 kts | 270° |
| 2026-05-07 20:10 | 33.69948 | -84.95742 | 16403 ft | 290 kts | 270° |
| 2026-05-07 20:10 | 33.69945 | -84.98167 | 17012 ft | 291 kts | 269° |
| 2026-05-07 20:10 | 33.69940 | -85.00604 | 17566 ft | 292 kts | 269° |
| 2026-05-07 20:10 | 33.69933 | -85.03052 | 18125 ft | 294 kts | 268° |
| 2026-05-07 20:11 | 33.69927 | -85.05511 | 18615 ft | 295 kts | 268° |
| 2026-05-07 20:11 | 33.69919 | -85.07997 | 18983 ft | 300 kts | 268° |
| 2026-05-07 20:11 | 33.69910 | -85.10479 | 19416 ft | 302 kts | 268° |
| 2026-05-07 20:11 | 33.69901 | -85.13009 | 19854 ft | 304 kts | 268° |
| 2026-05-07 20:12 | 33.69891 | -85.15559 | 20284 ft | 307 kts | 268° |
| 2026-05-07 20:12 | 33.69880 | -85.18129 | 20735 ft | 309 kts | 268° |
| 2026-05-07 20:12 | 33.69870 | -85.20726 | 21170 ft | 312 kts | 268° |
| 2026-05-07 20:12 | 33.69857 | -85.23342 | 21613 ft | 315 kts | 268° |
| 2026-05-07 20:13 | 33.69834 | -85.25978 | 22052 ft | 317 kts | 268° |
| 2026-05-07 20:13 | 33.69803 | -85.28637 | 22498 ft | 320 kts | 268° |
| 2026-05-07 20:13 | 33.69771 | -85.31318 | 22929 ft | 323 kts | 268° |
| 2026-05-07 20:13 | 33.69739 | -85.34027 | 23303 ft | 326 kts | 268° |
| 2026-05-07 20:14 | 33.69707 | -85.36764 | 23737 ft | 329 kts | 268° |
| 2026-05-07 20:14 | 33.69661 | -85.40701 | 24339 ft | 330 kts | 268° |
| 2026-05-07 20:14 | 33.69594 | -85.46315 | 25234 ft | 332 kts | 268° |
| 2026-05-07 20:14 | 33.69526 | -85.51884 | 26062 ft | 335 kts | 268° |
| 2026-05-07 20:15 | 33.69454 | -85.57511 | 26867 ft | 338 kts | 268° |
| 2026-05-07 20:15 | 33.69379 | -85.63186 | 27635 ft | 342 kts | 268° |
| 2026-05-07 20:15 | 33.69300 | -85.68927 | 28454 ft | 345 kts | 268° |
| 2026-05-07 20:15 | 33.69217 | -85.74716 | 29193 ft | 348 kts | 268° |
| 2026-05-07 20:16 | 33.69131 | -85.80558 | 29943 ft | 352 kts | 268° |
| 2026-05-07 20:16 | 33.69043 | -85.86466 | 30600 ft | 356 kts | 268° |
| 2026-05-07 20:16 | 33.68949 | -85.92445 | 31212 ft | 360 kts | 268° |
| 2026-05-07 20:16 | 33.68852 | -85.98497 | 31813 ft | 365 kts | 267° |
| 2026-05-07 20:17 | 33.68801 | -86.04622 | 32383 ft | 370 kts | 270° |
| 2026-05-07 20:17 | 33.69272 | -86.10809 | 32879 ft | 374 kts | 272° |
| 2026-05-07 20:17 | 33.69737 | -86.16653 | 33274 ft | 377 kts | 272° |
| 2026-05-07 20:17 | 33.70024 | -86.20322 | 33566 ft | 377 kts | 271° |
| 2026-05-07 20:18 | 33.70994 | -86.32788 | 34413 ft | 373 kts | 271° |
| 2026-05-07 20:18 | 33.71943 | -86.45143 | 35189 ft | 370 kts | 271° |
| 2026-05-07 20:18 | 33.72871 | -86.57422 | 35966 ft | 367 kts | 271° |
| 2026-05-07 20:18 | 33.73781 | -86.69607 | 36707 ft | 365 kts | 271° |
| 2026-05-07 20:19 | 33.74671 | -86.81710 | 37430 ft | 363 kts | 271° |
| 2026-05-07 20:19 | 33.75546 | -86.93746 | 38004 ft | 361 kts | 271° |
| 2026-05-07 20:19 | 33.76403 | -87.05708 | 38016 ft | 359 kts | 271° |
| 2026-05-07 20:20 | 33.78072 | -87.29493 | 38041 ft | 359 kts | 271° |
| 2026-05-07 20:20 | 33.80441 | -87.53346 | 38031 ft | 363 kts | 278° |
| 2026-05-07 20:21 | 33.85343 | -87.76914 | 38019 ft | 362 kts | 278° |
| 2026-05-07 20:21 | 33.90121 | -88.00145 | 38014 ft | 360 kts | 278° |
| 2026-05-07 20:22 | 33.94891 | -88.23566 | 38019 ft | 355 kts | 278° |
| 2026-05-07 20:22 | 33.99552 | -88.46719 | 38020 ft | 356 kts | 277° |
| 2026-05-07 20:23 | 34.04187 | -88.69962 | 38055 ft | 357 kts | 277° |
| 2026-05-07 20:23 | 34.08783 | -88.93271 | 38058 ft | 357 kts | 277° |
| 2026-05-07 20:24 | 34.13316 | -89.16496 | 38059 ft | 358 kts | 277° |
| 2026-05-07 20:24 | 34.17841 | -89.39932 | 38072 ft | 359 kts | 277° |
| 2026-05-07 20:25 | 34.22851 | -89.63299 | 38075 ft | 356 kts | 281° |
| 2026-05-07 20:25 | 34.28445 | -89.86339 | 38063 ft | 357 kts | 280° |
| 2026-05-07 20:26 | 34.33968 | -90.09408 | 38072 ft | 357 kts | 280° |
| 2026-05-07 20:26 | 34.39424 | -90.32410 | 38081 ft | 357 kts | 280° |
| 2026-05-07 20:27 | 34.44874 | -90.55600 | 38081 ft | 358 kts | 279° |
| 2026-05-07 20:27 | 34.50267 | -90.78754 | 38088 ft | 355 kts | 279° |
| 2026-05-07 20:28 | 34.55590 | -91.01837 | 38090 ft | 355 kts | 279° |
| 2026-05-07 20:28 | 34.60836 | -91.24797 | 38098 ft | 356 kts | 279° |
| 2026-05-07 20:29 | 34.66083 | -91.47981 | 38103 ft | 356 kts | 279° |
| 2026-05-07 20:29 | 34.71296 | -91.71238 | 38101 ft | 357 kts | 279° |
| 2026-05-07 20:30 | 34.76425 | -91.94345 | 38095 ft | 354 kts | 278° |
| 2026-05-07 20:30 | 34.80974 | -92.17557 | 38078 ft | 348 kts | 271° |
| 2026-05-07 20:31 | 34.81647 | -92.41057 | 38080 ft | 348 kts | 268° |
| 2026-05-07 20:31 | 34.82181 | -92.64618 | 38082 ft | 348 kts | 268° |
| 2026-05-07 20:32 | 34.82666 | -92.88051 | 38083 ft | 348 kts | 268° |
| 2026-05-07 20:32 | 34.83111 | -93.11666 | 38072 ft | 350 kts | 268° |
| 2026-05-07 20:33 | 34.83507 | -93.35342 | 38071 ft | 349 kts | 268° |
| 2026-05-07 20:33 | 34.83859 | -93.58952 | 38068 ft | 348 kts | 268° |
| 2026-05-07 20:34 | 34.84165 | -93.82546 | 38058 ft | 348 kts | 268° |
| 2026-05-07 20:34 | 34.84425 | -94.06150 | 38059 ft | 349 kts | 267° |
| 2026-05-07 20:35 | 34.84639 | -94.29678 | 38065 ft | 350 kts | 267° |
| 2026-05-07 20:35 | 34.84809 | -94.53410 | 38071 ft | 350 kts | 267° |
| 2026-05-07 20:36 | 34.84934 | -94.77182 | 38080 ft | 351 kts | 267° |
| 2026-05-07 20:36 | 34.85012 | -95.00983 | 38067 ft | 352 kts | 266° |
| 2026-05-07 20:37 | 34.85042 | -95.24848 | 38074 ft | 352 kts | 266° |
| 2026-05-07 20:37 | 34.85028 | -95.48760 | 38075 ft | 353 kts | 266° |
| 2026-05-07 20:38 | 34.84971 | -95.72530 | 38087 ft | 353 kts | 266° |
| 2026-05-07 20:38 | 34.86567 | -95.96504 | 38085 ft | 355 kts | 271° |
| 2026-05-07 20:39 | 34.88664 | -96.20432 | 38071 ft | 355 kts | 270° |
| 2026-05-07 20:39 | 34.90715 | -96.44473 | 38085 ft | 356 kts | 270° |
| 2026-05-07 20:40 | 34.92721 | -96.68561 | 38072 ft | 358 kts | 270° |
| 2026-05-07 20:40 | 34.94684 | -96.92720 | 38078 ft | 359 kts | 270° |
| 2026-05-07 20:41 | 34.96592 | -97.16792 | 38089 ft | 359 kts | 270° |
| 2026-05-07 20:41 | 34.98464 | -97.41039 | 38083 ft | 359 kts | 270° |
| 2026-05-07 20:42 | 35.00291 | -97.65314 | 38067 ft | 359 kts | 269° |
| 2026-05-07 20:42 | 35.02075 | -97.89691 | 38082 ft | 360 kts | 269° |
| 2026-05-07 20:43 | 35.03811 | -98.14105 | 38068 ft | 361 kts | 269° |
| 2026-05-07 20:43 | 35.05505 | -98.38605 | 38033 ft | 363 kts | 269° |
| 2026-05-07 20:44 | 35.07150 | -98.63129 | 38062 ft | 365 kts | 269° |
| 2026-05-07 20:44 | 35.08764 | -98.87955 | 38077 ft | 367 kts | 269° |
| 2026-05-07 20:45 | 35.10333 | -99.12882 | 38070 ft | 368 kts | 269° |
| 2026-05-07 20:45 | 35.11858 | -99.37921 | 38044 ft | 370 kts | 268° |
| 2026-05-07 20:46 | 35.13329 | -99.62993 | 38035 ft | 375 kts | 269° |
| 2026-05-07 20:46 | 35.14775 | -99.88490 | 38034 ft | 377 kts | 269° |
| 2026-05-07 20:47 | 35.16174 | -100.14110 | 38043 ft | 378 kts | 269° |
| 2026-05-07 20:47 | 35.17523 | -100.39831 | 38040 ft | 381 kts | 268° |
| 2026-05-07 20:48 | 35.18826 | -100.65720 | 38038 ft | 382 kts | 268° |
| 2026-05-07 20:48 | 35.20078 | -100.91723 | 38043 ft | 383 kts | 268° |
| 2026-05-07 20:49 | 35.21268 | -101.17564 | 38042 ft | 382 kts | 268° |
| 2026-05-07 20:49 | 35.22411 | -101.43628 | 38065 ft | 387 kts | 268° |
| 2026-05-07 20:50 | 35.23525 | -101.70010 | 38096 ft | 389 kts | 268° |
| 2026-05-07 20:50 | 35.25160 | -101.96584 | 38080 ft | 392 kts | 269° |
| 2026-05-07 20:51 | 35.26769 | -102.23287 | 38040 ft | 395 kts | 269° |
| 2026-05-07 20:51 | 35.28322 | -102.50178 | 38040 ft | 397 kts | 269° |
| 2026-05-07 20:52 | 35.29818 | -102.77101 | 38045 ft | 399 kts | 269° |
| 2026-05-07 20:52 | 35.31271 | -103.04390 | 38039 ft | 403 kts | 269° |
| 2026-05-07 20:53 | 35.32676 | -103.31948 | 38043 ft | 407 kts | 269° |
| 2026-05-07 20:53 | 35.33801 | -103.54970 | 38059 ft | 409 kts | 269° |
| 2026-05-07 20:54 | 35.35104 | -103.82854 | 38044 ft | 410 kts | 269° |
| 2026-05-07 20:54 | 35.36554 | -104.15570 | 38004 ft | 415 kts | 269° |
| 2026-05-07 20:55 | 35.37544 | -104.39175 | 37994 ft | 419 kts | 269° |
| 2026-05-07 20:55 | 35.38687 | -104.67959 | 38001 ft | 424 kts | 269° |
| 2026-05-07 20:56 | 35.39770 | -104.96934 | 37974 ft | 427 kts | 269° |
| 2026-05-07 20:56 | 35.40792 | -105.26164 | 38064 ft | 430 kts | 269° |
| 2026-05-07 20:57 | 35.41753 | -105.55660 | 38017 ft | 434 kts | 269° |
| 2026-05-07 20:57 | 35.42646 | -105.85390 | 38012 ft | 438 kts | 269° |
| 2026-05-07 20:58 | 35.43476 | -106.15427 | 38088 ft | 444 kts | 270° |
| 2026-05-07 20:58 | 35.44239 | -106.45793 | 37994 ft | 447 kts | 270° |
| 2026-05-07 20:59 | 35.44931 | -106.76379 | 37998 ft | 450 kts | 270° |
| 2026-05-07 20:59 | 35.45549 | -107.07116 | 38015 ft | 452 kts | 270° |
| 2026-05-07 21:00 | 35.46091 | -107.37930 | 38026 ft | 455 kts | 270° |
| 2026-05-07 21:00 | 35.46558 | -107.69172 | 38036 ft | 459 kts | 271° |
| 2026-05-07 21:01 | 35.46946 | -108.00511 | 38044 ft | 459 kts | 271° |
| 2026-05-07 21:01 | 35.47254 | -108.31805 | 38004 ft | 458 kts | 271° |
| 2026-05-07 21:02 | 35.47482 | -108.63079 | 38002 ft | 457 kts | 271° |
| 2026-05-07 21:02 | 35.47576 | -108.78767 | 38180 ft | 458 kts | 271° |
| 2026-05-07 21:02 | 35.47571 | -108.94578 | 38152 ft | 462 kts | 271° |
| 2026-05-07 21:03 | 35.47758 | -109.26270 | 38075 ft | 466 kts | 271° |
| 2026-05-07 21:03 | 35.47793 | -109.58130 | 38001 ft | 469 kts | 271° |
| 2026-05-07 21:04 | 35.47746 | -109.90104 | 37988 ft | 469 kts | 271° |
| 2026-05-07 21:04 | 35.47611 | -110.22207 | 37994 ft | 472 kts | 271° |
| 2026-05-07 21:05 | 35.47392 | -110.54529 | 38004 ft | 474 kts | 272° |
| 2026-05-07 21:05 | 35.47087 | -110.86744 | 37999 ft | 476 kts | 271° |
| 2026-05-07 21:06 | 35.46692 | -111.19317 | 38011 ft | 479 kts | 271° |
| 2026-05-07 21:06 | 35.46208 | -111.52055 | 38053 ft | 480 kts | 271° |
| 2026-05-07 21:07 | 35.45664 | -111.84792 | 38078 ft | 479 kts | 275° |
| 2026-05-07 21:07 | 35.49463 | -112.16901 | 38147 ft | 476 kts | 282° |
| 2026-05-07 21:08 | 35.53418 | -112.49078 | 38029 ft | 477 kts | 282° |
| 2026-05-07 21:08 | 35.57297 | -112.81350 | 37999 ft | 477 kts | 282° |
| 2026-05-07 21:09 | 35.61090 | -113.13674 | 37978 ft | 478 kts | 282° |
| 2026-05-07 21:09 | 35.64791 | -113.46029 | 37885 ft | 476 kts | 281° |
| 2026-05-07 21:09 | 35.65277 | -113.50169 | 37350 ft | 474 kts | 284° |
| 2026-05-07 21:10 | 35.65925 | -113.54147 | 36481 ft | 476 kts | 285° |
| 2026-05-07 21:10 | 35.66598 | -113.58161 | 35391 ft | 481 kts | 285° |
| 2026-05-07 21:10 | 35.67273 | -113.62216 | 34065 ft | 487 kts | 285° |
| 2026-05-07 21:10 | 35.67952 | -113.66324 | 32552 ft | 491 kts | 285° |
| 2026-05-07 21:11 | 35.68631 | -113.70458 | 31066 ft | 494 kts | 285° |
| 2026-05-07 21:11 | 35.69308 | -113.74610 | 29541 ft | 496 kts | 285° |
| 2026-05-07 21:11 | 35.70631 | -113.82787 | 27255 ft | 479 kts | 284° |
| 2026-05-07 21:12 | 35.71271 | -113.86758 | 26477 ft | 463 kts | 284° |
| 2026-05-07 21:12 | 35.71896 | -113.90635 | 25513 ft | 462 kts | 284° |
| 2026-05-07 21:12 | 35.72521 | -113.94501 | 24788 ft | 457 kts | 284° |
| 2026-05-07 21:12 | 35.73133 | -113.98307 | 24113 ft | 450 kts | 284° |
| 2026-05-07 21:13 | 35.73738 | -114.02072 | 23324 ft | 446 kts | 284° |
| 2026-05-07 21:13 | 35.74335 | -114.05796 | 22519 ft | 440 kts | 284° |
| 2026-05-07 21:13 | 35.74913 | -114.09419 | 21709 ft | 435 kts | 284° |
| 2026-05-07 21:13 | 35.75537 | -114.13041 | 20868 ft | 429 kts | 288° |
| 2026-05-07 21:14 | 35.76486 | -114.16488 | 20085 ft | 421 kts | 295° |
| 2026-05-07 21:14 | 35.77767 | -114.19701 | 19292 ft | 414 kts | 302° |
| 2026-05-07 21:14 | 35.79164 | -114.22789 | 18511 ft | 411 kts | 301° |
| 2026-05-07 21:14 | 35.80531 | -114.25854 | 17676 ft | 406 kts | 301° |
| 2026-05-07 21:15 | 35.81872 | -114.28890 | 16795 ft | 401 kts | 301° |
| 2026-05-07 21:15 | 35.83202 | -114.31906 | 15898 ft | 397 kts | 301° |
| 2026-05-07 21:15 | 35.84671 | -114.34750 | 14956 ft | 390 kts | 308° |
| 2026-05-07 21:15 | 35.86333 | -114.37384 | 14059 ft | 387 kts | 310° |
| 2026-05-07 21:16 | 35.87945 | -114.39944 | 13599 ft | 374 kts | 309° |
| 2026-05-07 21:16 | 35.89492 | -114.42417 | 13285 ft | 345 kts | 309° |
| 2026-05-07 21:16 | 35.90898 | -114.44679 | 13047 ft | 320 kts | 309° |
| 2026-05-07 21:16 | 35.92189 | -114.46758 | 12695 ft | 302 kts | 309° |
| 2026-05-07 21:17 | 35.93463 | -114.48803 | 12180 ft | 298 kts | 309° |
| 2026-05-07 21:17 | 35.94717 | -114.50814 | 11657 ft | 294 kts | 309° |
| 2026-05-07 21:17 | 35.95957 | -114.52803 | 11119 ft | 290 kts | 309° |
| 2026-05-07 21:17 | 35.97179 | -114.54776 | 10560 ft | 288 kts | 309° |
| 2026-05-07 21:18 | 35.98383 | -114.56731 | 10038 ft | 285 kts | 309° |
| 2026-05-07 21:18 | 35.99572 | -114.58664 | 9487 ft | 281 kts | 309° |
| 2026-05-07 21:18 | 36.00753 | -114.60583 | 8877 ft | 279 kts | 309° |
| 2026-05-07 21:18 | 36.01923 | -114.62482 | 8532 ft | 277 kts | 309° |
| 2026-05-07 21:19 | 36.03084 | -114.64369 | 8422 ft | 271 kts | 308° |
| 2026-05-07 21:19 | 36.04151 | -114.66212 | 8264 ft | 254 kts | 302° |
| 2026-05-07 21:19 | 36.05017 | -114.68012 | 8035 ft | 236 kts | 302° |
| 2026-05-07 21:19 | 36.05851 | -114.69732 | 7940 ft | 235 kts | 302° |
| 2026-05-07 21:20 | 36.06699 | -114.71469 | 7930 ft | 235 kts | 302° |
| 2026-05-07 21:20 | 36.07303 | -114.73340 | 7937 ft | 237 kts | 283° |
| 2026-05-07 21:20 | 36.07401 | -114.75376 | 7829 ft | 237 kts | 270° |
| 2026-05-07 21:20 | 36.07360 | -114.77401 | 7560 ft | 235 kts | 270° |
| 2026-05-07 21:21 | 36.07341 | -114.79425 | 7169 ft | 235 kts | 271° |
| 2026-05-07 21:21 | 36.07351 | -114.81416 | 6785 ft | 235 kts | 274° |
| 2026-05-07 21:21 | 36.07407 | -114.83421 | 6455 ft | 232 kts | 271° |
| 2026-05-07 21:21 | 36.07397 | -114.85402 | 6165 ft | 227 kts | 271° |
| 2026-05-07 21:22 | 36.07400 | -114.87331 | 5873 ft | 221 kts | 271° |
| 2026-05-07 21:22 | 36.07397 | -114.89210 | 5585 ft | 216 kts | 271° |
| 2026-05-07 21:22 | 36.07395 | -114.91052 | 5321 ft | 212 kts | 270° |
| 2026-05-07 21:22 | 36.07392 | -114.92850 | 5053 ft | 206 kts | 271° |
| 2026-05-07 21:23 | 36.07399 | -114.94595 | 4784 ft | 201 kts | 271° |
| 2026-05-07 21:23 | 36.07393 | -114.96302 | 4528 ft | 197 kts | 271° |
| 2026-05-07 21:23 | 36.07391 | -114.97989 | 4296 ft | 193 kts | 271° |
| 2026-05-07 21:23 | 36.07386 | -114.99598 | 4064 ft | 180 kts | 271° |
| 2026-05-07 21:24 | 36.07385 | -115.01088 | 3856 ft | 165 kts | 271° |
| 2026-05-07 21:24 | 36.07382 | -115.02450 | 3655 ft | 154 kts | 270° |
| 2026-05-07 21:24 | 36.07380 | -115.03801 | 3462 ft | 155 kts | 270° |
| 2026-05-07 21:24 | 36.07378 | -115.05124 | 3288 ft | 158 kts | 270° |
| 2026-05-07 21:25 | 36.07376 | -115.06453 | 3087 ft | 150 kts | 270° |
| 2026-05-07 21:25 | 36.07374 | -115.07776 | 2883 ft | 154 kts | 270° |
| 2026-05-07 21:25 | 36.07372 | -115.09069 | 2683 ft | 152 kts | 270° |
| 2026-05-07 21:25 | 36.07371 | -115.10369 | 2441 ft | 147 kts | 270° |
| 2026-05-07 21:26 | 36.07365 | -115.11655 | 2233 ft | 150 kts | 270° |
| 2026-05-07 21:26 | 36.07364 | -115.12914 | 2088 ft | 151 kts | 270° |
| 2026-05-07 21:26 | 36.07363 | -115.13984 | 2105 ft | 83 kts | 270° |
| 2026-05-07 21:26 | 36.07382 | -115.14402 | 2120 ft | 30 kts | 292° |
| 2026-05-07 21:27 | 36.07459 | -115.14569 | 2120 ft | 12 kts | 301° |
| 2026-05-07 21:27 | 36.07489 | -115.14618 | 2118 ft | 0 kts | 313° |
| 2026-05-07 21:27 | 36.07495 | -115.14624 | 2117 ft | 3 kts | 316° |
| 2026-05-07 21:27 | 36.07528 | -115.14645 | 2116 ft | 9 kts | 337° |
| 2026-05-07 21:28 | 36.07616 | -115.14655 | 2114 ft | 16 kts | 357° |
| 2026-05-07 21:28 | 36.07734 | -115.14648 | 2110 ft | 16 kts | 19° |
| 2026-05-07 21:28 | 36.07764 | -115.14557 | 2107 ft | 13 kts | 91° |
| 2026-05-07 21:28 | 36.07761 | -115.14428 | 2105 ft | 17 kts | 92° |
| 2026-05-07 21:29 | 36.07753 | -115.14267 | 2099 ft | 21 kts | 92° |
| 2026-05-07 21:29 | 36.07754 | -115.14072 | 2094 ft | 24 kts | 89° |
| 2026-05-07 21:29 | 36.07755 | -115.13867 | 2091 ft | 20 kts | 90° |
| 2026-05-07 21:29 | 36.07834 | -115.13802 | 2083 ft | 16 kts | 345° |
| 2026-05-07 21:30 | 36.07932 | -115.13842 | 2080 ft | 6 kts | 341° |
| 2026-05-07 21:30 | 36.07959 | -115.13853 | 2080 ft | 3 kts | 343° |
| 2026-05-07 21:30 | 36.07978 | -115.13859 | 2080 ft | 3 kts | 344° |
| 2026-05-07 21:30 | 36.07998 | -115.13866 | 2081 ft | 3 kts | 346° |
| 2026-05-07 21:31 | 36.08019 | -115.13872 | 2080 ft | 3 kts | 346° |
| 2026-05-07 21:31 | 36.08031 | -115.13876 | 2081 ft | 2 kts | 345° |
| 2026-05-07 21:31 | 36.08038 | -115.13878 | 2082 ft | 0 kts | 345° |